Time;durP1;ratioP1;P1;durP2;ratioP2;P2;SDS_P1;SDS_P2;PMS_P1;PMS_P2;Temp;Humidity;BMP_temperature;BMP_pressure;BME280_temperature;BME280_humidity;BME280_pressure;Samples;Min_cycle;Max_cycle;Signal;HPM_P1;HPM_P2
2021/04/22 00:00:32;;;;;;;38.42;22.87;;;;;;;6.89;76.71;97770.59;1796565;79;21039;-70
2021/04/22 00:03:00;;;;;;;33.78;22.55;;;;;;;6.85;78.44;97761.97;1784035;80;21492;-71
2021/04/22 00:05:31;;;;;;;38.38;25.55;;;;;;;6.89;76.68;97766.55;1787560;80;21107;-71
2021/04/22 00:07:58;;;;;;;46.40;23.92;;;;;;;6.88;78.37;97762.77;1783645;80;21126;-71
2021/04/22 00:10:41;;;;;;;43.68;24.70;;;;;;;6.90;77.40;97764.66;1787552;80;21413;-71
2021/04/22 00:13:07;;;;;;;47.35;26.70;;;;;;;6.84;78.02;97759.80;1784057;80;21090;-69
2021/04/22 00:15:34;;;;;;;40.30;24.92;;;;;;;6.84;77.60;97761.69;1787649;80;21130;-69
2021/04/22 00:18:00;;;;;;;45.17;25.90;;;;;;;6.83;77.78;97761.39;1784058;80;21504;-69
2021/04/22 00:20:26;;;;;;;39.38;23.00;;;;;;;6.79;77.57;97766.50;1787534;80;21071;-69
2021/04/22 00:22:53;;;;;;;39.75;27.22;;;;;;;6.77;77.20;97760.03;1784088;80;21511;-69
2021/04/22 00:25:19;;;;;;;46.75;26.87;;;;;;;6.69;78.86;97770.48;1787513;80;21047;-69
2021/04/22 00:27:45;;;;;;;39.25;24.75;;;;;;;6.68;78.66;97764.83;1784053;80;21115;-69
2021/04/22 00:30:14;;;;;;;39.65;25.37;;;;;;;6.71;77.37;97766.45;1787553;80;21040;-69
2021/04/22 00:32:41;;;;;;;43.08;25.37;;;;;;;6.71;77.98;97764.30;1784225;80;21004;-69
2021/04/22 00:35:08;;;;;;;43.05;24.57;;;;;;;6.75;77.30;97769.42;1787633;80;21563;-70
2021/04/22 00:37:35;;;;;;;42.25;23.73;;;;;;;6.74;77.16;97769.16;1784009;80;21102;-69
2021/04/22 00:40:08;;;;;;;37.05;24.32;;;;;;;6.72;78.26;97768.61;1787507;80;21095;-69
2021/04/22 00:42:34;;;;;;;36.55;22.30;;;;;;;6.71;79.25;97767.80;1784010;80;21111;-71
2021/04/22 00:45:01;;;;;;;38.20;23.80;;;;;;;6.72;77.99;97769.42;1787569;80;21146;-71
2021/04/22 00:47:27;;;;;;;34.43;22.77;;;;;;;6.72;78.87;97760.00;1783958;80;22085;-72
2021/04/22 00:49:53;;;;;;;37.70;22.65;;;;;;;6.72;78.03;97764.57;1787491;80;21166;-71
2021/04/22 00:52:19;;;;;;;37.98;23.25;;;;;;;6.66;78.35;97761.03;1783980;80;21059;-71
2021/04/22 00:54:46;;;;;;;36.42;22.98;;;;;;;6.62;77.74;97757.78;1787588;80;21162;-71
2021/04/22 00:57:12;;;;;;;33.30;22.65;;;;;;;6.54;78.66;97754.23;1784016;80;21916;-71
2021/04/22 00:59:38;;;;;;;39.30;21.80;;;;;;;6.52;77.51;97758.54;1787522;80;22086;-71
2021/04/22 01:02:16;;;;;;;36.17;22.07;;;;;;;6.50;77.33;97751.27;1783800;80;21122;-72
2021/04/22 01:04:49;;;;;;;34.23;20.80;;;;;;;6.44;77.25;97752.30;1787780;80;21488;-70
2021/04/22 01:07:15;;;;;;;28.65;18.07;;;;;;;6.38;80.63;97753.32;1783878;80;21531;-70
2021/04/22 01:09:42;;;;;;;30.82;19.40;;;;;;;6.37;80.30;97757.89;1787744;80;21178;-70
2021/04/22 01:12:10;;;;;;;25.97;17.57;;;;;;;6.39;81.25;97758.98;1784129;80;21195;-70
2021/04/22 01:14:36;;;;;;;26.70;18.10;;;;;;;6.40;81.05;97760.59;1788062;80;21134;-70
2021/04/22 01:17:03;;;;;;;33.15;21.93;;;;;;;6.43;80.38;97759.56;1784065;80;21167;-70
2021/04/22 01:19:29;;;;;;;28.35;17.23;;;;;;;6.49;79.60;97759.87;1787672;80;21122;-70
2021/04/22 01:21:55;;;;;;;29.77;19.85;;;;;;;6.46;78.97;97763.06;1784181;80;21527;-70
2021/04/22 01:24:21;;;;;;;30.82;19.57;;;;;;;6.46;79.05;97767.11;1787789;80;22139;-70
2021/04/22 01:26:47;;;;;;;36.98;22.95;;;;;;;6.48;78.95;97767.65;1784087;80;21483;-70
2021/04/22 01:29:14;;;;;;;39.90;22.60;;;;;;;6.54;78.57;97765.00;1787701;80;21523;-70
2021/04/22 01:31:40;;;;;;;38.28;23.60;;;;;;;6.55;78.38;97767.97;1784172;80;21392;-70
2021/04/22 01:34:08;;;;;;;40.65;20.70;;;;;;;6.55;78.57;97764.73;1787735;80;21126;-69
2021/04/22 01:36:40;;;;;;;27.50;18.80;;;;;;;6.59;79.44;97763.16;1784166;80;21254;-70
2021/04/22 01:39:08;;;;;;;30.45;17.55;;;;;;;6.62;79.94;97763.17;1787636;80;21134;-70
2021/04/22 01:41:34;;;;;;;29.15;19.15;;;;;;;6.64;79.59;97763.72;1784305;80;21122;-70
2021/04/22 01:44:00;;;;;;;25.32;17.00;;;;;;;6.63;79.73;97763.44;1787672;80;21173;-70
2021/04/22 01:46:27;;;;;;;33.55;19.50;;;;;;;6.67;79.50;97763.22;1784088;80;21123;-70
2021/04/22 01:48:53;;;;;;;30.30;19.02;;;;;;;6.70;78.94;97758.64;1757015;80;21279;-70
2021/04/22 01:51:20;;;;;;;29.90;17.75;;;;;;;6.68;78.84;97764.83;1783993;80;21063;-70
2021/04/22 01:53:47;;;;;;;30.05;20.10;;;;;;;6.68;78.41;97763.48;1787731;80;21122;-70
2021/04/22 01:56:14;;;;;;;24.65;15.18;;;;;;;6.60;78.27;97763.98;1784045;80;21539;-70
2021/04/22 01:58:40;;;;;;;28.95;16.42;;;;;;;6.58;78.19;97763.40;1787725;80;21075;-70
2021/04/22 02:01:07;;;;;;;27.27;16.82;;;;;;;6.62;78.63;97757.78;1783933;80;21204;-70
2021/04/22 02:03:33;;;;;;;24.47;16.32;;;;;;;6.65;78.84;97765.33;1787674;80;21158;-70
2021/04/22 02:06:01;;;;;;;28.87;18.00;;;;;;;6.63;78.46;97760.22;1784021;80;21079;-70
2021/04/22 02:08:27;;;;;;;22.93;15.03;;;;;;;6.65;78.48;97762.10;1787678;80;21115;-70
2021/04/22 02:10:53;;;;;;;21.37;15.35;;;;;;;6.73;79.28;97757.58;1784052;80;21052;-70
2021/04/22 02:13:21;;;;;;;24.15;15.88;;;;;;;6.75;80.02;97751.41;1787646;80;21207;-70
2021/04/22 02:15:47;;;;;;;29.23;17.35;;;;;;;6.79;79.70;97755.19;1784071;80;21218;-70
2021/04/22 02:18:14;;;;;;;30.43;18.02;;;;;;;6.82;79.90;97758.42;1787690;80;21098;-70
2021/04/22 02:20:40;;;;;;;30.52;17.15;;;;;;;6.84;79.85;97759.80;1784074;80;21150;-70
2021/04/22 02:23:08;;;;;;;29.87;16.07;;;;;;;6.83;78.97;97756.81;1787696;80;21142;-70
2021/04/22 02:25:34;;;;;;;30.57;19.25;;;;;;;6.76;80.38;97746.30;1753250;80;21197;-70
2021/04/22 02:28:01;;;;;;;29.45;17.67;;;;;;;6.78;79.38;97744.69;1787604;80;21138;-70
2021/04/22 02:30:32;;;;;;;23.92;15.93;;;;;;;6.75;79.25;97735.77;1784017;80;21083;-70
2021/04/22 02:32:59;;;;;;;26.02;16.27;;;;;;;6.65;78.62;97739.75;1787658;80;21091;-70
2021/04/22 02:35:28;;;;;;;27.85;15.58;;;;;;;6.57;78.85;97747.78;1784142;80;21111;-71
2021/04/22 02:37:55;;;;;;;27.90;16.42;;;;;;;6.51;79.06;97750.19;1787903;80;21204;-70
2021/04/22 02:40:24;;;;;;;26.90;16.25;;;;;;;6.52;78.80;97754.50;1783951;80;21102;-70
2021/04/22 02:42:51;;;;;;;24.45;16.93;;;;;;;6.53;80.11;97750.73;1787789;80;21103;-70
2021/04/22 02:45:21;;;;;;;25.05;16.27;;;;;;;6.53;79.96;97750.73;1784060;80;21094;-71
2021/04/22 02:47:47;;;;;;;25.43;17.62;;;;;;;6.58;80.13;97754.81;1787603;80;21087;-70
2021/04/22 02:50:17;;;;;;;24.35;16.85;;;;;;;6.70;79.67;97762.14;1784097;80;21901;-71
2021/04/22 02:52:43;;;;;;;31.23;17.82;;;;;;;6.78;79.94;97760.30;1787525;80;21119;-71
2021/04/22 02:55:11;;;;;;;32.00;19.98;;;;;;;6.82;79.65;97751.69;1784107;80;21130;-71
2021/04/22 02:57:37;;;;;;;28.62;17.07;;;;;;;6.84;80.32;97750.92;1787585;80;21055;-71
2021/04/22 03:00:06;;;;;;;27.17;18.80;;;;;;;6.83;79.05;97740.66;1784029;80;21128;-71
2021/04/22 03:02:33;;;;;;;30.85;19.30;;;;;;;6.67;80.91;97735.75;1774919;80;21180;-71
2021/04/22 03:04:59;;;;;;;25.85;17.37;;;;;;;6.60;81.53;97733.02;1761082;81;21521;-71
2021/04/22 03:07:25;;;;;;;28.52;16.80;;;;;;;6.58;81.42;97739.17;1772707;81;21115;-71
2021/04/22 03:09:51;;;;;;;30.10;17.32;;;;;;;6.58;81.09;97744.55;1761070;81;21172;-71
2021/04/22 03:12:17;;;;;;;23.87;17.17;;;;;;;6.61;80.30;97744.05;1772701;81;21132;-71
2021/04/22 03:14:44;;;;;;;25.27;15.95;;;;;;;6.64;80.05;97736.25;1761190;81;21192;-71
2021/04/22 03:17:10;;;;;;;30.75;18.75;;;;;;;6.66;79.75;97740.83;1772699;81;21048;-71
2021/04/22 03:19:36;;;;;;;56.28;30.05;;;;;;;6.61;81.92;97746.20;1761157;81;21157;-71
2021/04/22 03:22:02;;;;;;;34.45;21.57;;;;;;;6.57;80.36;97745.63;1772661;81;21081;-71
2021/04/22 03:24:28;;;;;;;27.85;19.02;;;;;;;6.44;79.83;97747.72;1761163;81;21173;-71
2021/04/22 03:26:54;;;;;;;32.03;18.73;;;;;;;6.40;79.80;97746.59;1772712;80;21204;-71
2021/04/22 03:29:20;;;;;;;28.50;18.30;;;;;;;6.31;79.54;97748.16;1761047;81;21129;-71
2021/04/22 03:31:47;;;;;;;27.32;18.48;;;;;;;6.19;79.82;97744.31;1772781;81;21476;-71
2021/04/22 03:34:13;;;;;;;28.47;19.30;;;;;;;6.15;80.60;97747.77;1761090;81;21165;-71
2021/04/22 03:36:39;;;;;;;28.12;19.55;;;;;;;6.04;79.96;97752.80;1772716;81;21056;-71
2021/04/22 03:39:06;;;;;;;38.02;24.87;;;;;;;5.90;79.51;97754.59;1761118;81;21144;-71
2021/04/22 03:41:33;;;;;;;34.15;22.70;;;;;;;5.83;79.36;97755.30;1772718;80;21151;-71
2021/04/22 03:43:59;;;;;;;37.75;24.07;;;;;;;5.79;81.23;97754.70;1761130;81;21133;-71
2021/04/22 03:46:25;;;;;;;31.95;22.10;;;;;;;5.84;80.24;97753.41;1772682;81;21174;-71
2021/04/22 03:48:51;;;;;;;38.58;26.60;;;;;;;5.85;80.68;97755.03;1761165;81;21121;-71
2021/04/22 03:51:17;;;;;;;36.50;24.70;;;;;;;5.86;80.77;97756.11;1772758;81;21201;-71
2021/04/22 03:53:43;;;;;;;40.20;23.65;;;;;;;5.84;80.38;97755.56;1761114;81;21538;-71
2021/04/22 03:56:10;;;;;;;41.83;25.57;;;;;;;5.84;80.29;97757.45;1772655;81;21175;-71
2021/04/22 03:58:36;;;;;;;42.75;30.50;;;;;;;5.79;80.38;97751.47;1761161;81;21122;-71
2021/04/22 04:01:02;;;;;;;35.90;24.95;;;;;;;5.74;82.73;97748.76;1774483;80;21012;-71
2021/04/22 04:03:28;;;;;;;31.82;20.82;;;;;;;5.74;81.17;97753.33;1784032;80;21199;-71
2021/04/22 04:05:54;;;;;;;31.93;21.87;;;;;;;5.66;83.18;97756.75;1756438;80;21224;-71
2021/04/22 04:08:21;;;;;;;27.65;22.25;;;;;;;5.66;83.14;97758.09;1784008;80;21158;-71
2021/04/22 04:10:47;;;;;;;31.40;23.47;;;;;;;5.64;83.18;97758.08;1787599;80;21186;-71
2021/04/22 04:13:13;;;;;;;40.50;28.23;;;;;;;5.57;83.94;97758.81;1784029;80;21435;-71
2021/04/22 04:15:40;;;;;;;32.05;21.33;;;;;;;5.51;84.24;97760.63;1787671;80;21277;-71
2021/04/22 04:18:06;;;;;;;41.25;25.95;;;;;;;5.53;83.10;97763.86;1783910;80;21504;-71
2021/04/22 04:20:32;;;;;;;51.77;33.70;;;;;;;5.54;82.62;97760.64;1787642;80;21543;-72
2021/04/22 04:22:58;;;;;;;50.75;34.60;;;;;;;5.53;82.93;97770.58;1783930;80;21067;-71
2021/04/22 04:25:25;;;;;;;57.78;36.17;;;;;;;5.57;83.37;97769.02;1787652;80;21134;-72
2021/04/22 04:27:51;;;;;;;53.10;32.15;;;;;;;5.68;83.10;97769.13;1784041;80;21238;-71
2021/04/22 04:30:19;;;;;;;55.00;32.05;;;;;;;5.75;82.11;97774.58;1787558;80;21142;-71
2021/04/22 04:32:45;;;;;;;50.28;32.40;;;;;;;5.76;81.89;97778.08;1784253;80;21103;-71
2021/04/22 04:35:13;;;;;;;47.67;29.50;;;;;;;5.80;82.83;97777.30;1787579;80;21152;-71
2021/04/22 04:37:39;;;;;;;45.40;27.77;;;;;;;5.89;84.68;97774.42;1783956;80;21039;-71
2021/04/22 04:40:08;;;;;;;45.92;29.72;;;;;;;6.04;84.09;97780.50;1787641;80;21539;-71
2021/04/22 04:42:34;;;;;;;47.90;30.20;;;;;;;6.18;83.58;97781.71;1784188;80;21074;-71
2021/04/22 04:45:01;;;;;;;43.35;29.85;;;;;;;6.30;83.49;97786.09;1787717;80;21140;-71
2021/04/22 04:47:27;;;;;;;47.65;28.25;;;;;;;6.38;82.79;97786.42;1784117;80;21142;-71
2021/04/22 04:49:53;;;;;;;58.73;38.50;;;;;;;6.40;83.02;97784.81;1787804;80;21118;-71
2021/04/22 04:52:19;;;;;;;65.85;42.62;;;;;;;6.41;83.35;97784.59;1784167;80;22123;-71
2021/04/22 04:54:45;;;;;;;49.93;36.23;;;;;;;6.47;82.94;97788.91;1787703;80;21551;-72
2021/04/22 04:57:11;;;;;;;39.00;25.80;;;;;;;6.55;82.40;97785.47;1784092;80;21094;-71
2021/04/22 04:59:37;;;;;;;33.95;19.30;;;;;;;6.62;81.72;97782.83;1787669;80;21122;-72
2021/04/22 05:02:04;;;;;;;28.55;19.73;;;;;;;6.73;81.52;97779.66;1784025;80;21106;-71
2021/04/22 05:04:31;;;;;;;28.57;17.75;;;;;;;6.79;81.38;97787.51;1787831;80;22023;-71
2021/04/22 05:06:57;;;;;;;23.47;16.37;;;;;;;6.92;82.01;97787.59;1784003;80;21055;-71
2021/04/22 05:09:23;;;;;;;33.38;18.45;;;;;;;7.07;81.80;97789.53;1787813;80;21174;-71
2021/04/22 05:11:50;;;;;;;23.10;16.85;;;;;;;7.14;82.04;97793.34;1784090;80;21023;-71
2021/04/22 05:14:16;;;;;;;26.73;17.40;;;;;;;7.28;81.62;97797.99;1787770;80;21090;-71
2021/04/22 05:16:42;;;;;;;31.70;18.57;;;;;;;7.37;81.30;97808.27;1784159;80;22176;-71
2021/04/22 05:19:08;;;;;;;26.48;17.57;;;;;;;7.49;81.04;97808.84;1787639;80;21551;-71
2021/04/22 05:21:34;;;;;;;26.57;17.05;;;;;;;7.47;80.29;97808.30;1753406;80;21095;-71
2021/04/22 05:24:02;;;;;;;33.92;20.25;;;;;;;7.48;80.18;97813.42;1787665;80;21122;-71
2021/04/22 05:26:28;;;;;;;46.18;24.90;;;;;;;7.51;80.15;97811.53;1784080;80;21067;-71
2021/04/22 05:28:55;;;;;;;51.25;29.15;;;;;;;7.61;80.37;97820.22;1787862;80;21202;-71
2021/04/22 05:31:23;;;;;;;33.25;23.27;;;;;;;7.69;80.96;97821.56;1783996;80;21035;-71
2021/04/22 05:33:49;;;;;;;26.68;16.85;;;;;;;7.74;80.94;97826.45;1787832;80;21067;-71
2021/04/22 05:36:15;;;;;;;32.85;18.80;;;;;;;7.80;80.71;97827.28;1784166;80;21087;-71
2021/04/22 05:38:41;;;;;;;28.80;17.98;;;;;;;7.85;80.35;97822.69;1787680;80;21158;-71
2021/04/22 05:41:08;;;;;;;29.27;19.60;;;;;;;7.97;80.17;97820.30;1784035;80;21962;-71
2021/04/22 05:43:34;;;;;;;34.38;17.55;;;;;;;8.09;80.17;97834.34;1787601;80;21126;-71
2021/04/22 05:46:00;;;;;;;27.67;18.70;;;;;;;8.18;79.72;97824.63;1784058;80;21441;-71
2021/04/22 05:48:26;;;;;;;109.17;46.23;;;;;;;8.24;79.57;97832.20;1787760;80;21523;-71
2021/04/22 05:50:52;;;;;;;98.45;43.75;;;;;;;8.35;79.10;97830.61;1784072;80;21064;-71
2021/04/22 05:53:19;;;;;;;55.60;31.42;;;;;;;8.41;79.12;97843.58;1787745;80;21200;-71
2021/04/22 05:55:45;;;;;;;52.30;32.48;;;;;;;8.46;78.68;97839.00;1784029;80;21274;-71
2021/04/22 05:58:11;;;;;;;52.33;29.23;;;;;;;8.54;78.93;97844.37;1787649;80;21087;-71
2021/04/22 06:00:37;;;;;;;69.12;39.75;;;;;;;8.66;78.69;97847.62;1784029;80;21169;-71
2021/04/22 06:03:04;;;;;;;96.15;58.65;;;;;;;8.72;78.55;97847.09;1776992;80;21096;-71
2021/04/22 06:05:31;;;;;;;86.22;49.50;;;;;;;8.80;78.41;97849.22;1761085;81;21193;-71
2021/04/22 06:07:57;;;;;;;56.63;34.67;;;;;;;8.86;78.36;97841.92;1772705;81;21509;-71
2021/04/22 06:10:23;;;;;;;51.35;30.82;;;;;;;8.90;78.28;97841.12;1761151;81;21173;-72
2021/04/22 06:12:49;;;;;;;43.02;28.07;;;;;;;9.09;78.48;97844.59;1772741;81;21163;-71
2021/04/22 06:15:17;;;;;;;46.50;25.32;;;;;;;9.36;78.52;97841.54;1761149;81;21141;-71
2021/04/22 06:17:43;;;;;;;39.67;24.55;;;;;;;9.58;77.68;97846.88;1772705;81;21547;-71
2021/04/22 06:20:14;;;;;;;42.83;22.75;;;;;;;9.83;77.09;97850.55;1760997;81;21137;-71
2021/04/22 06:22:40;;;;;;;30.68;18.42;;;;;;;10.09;76.54;97847.95;1772359;81;21048;-70
2021/04/22 06:25:07;;;;;;;34.18;20.23;;;;;;;10.18;74.32;97865.77;1761096;81;21149;-71
2021/04/22 06:27:34;;;;;;;40.98;21.95;;;;;;;10.22;72.36;97864.66;1772805;81;21139;-71
2021/04/22 06:30:00;;;;;;;38.53;23.35;;;;;;;10.28;72.76;97871.69;1761220;81;21205;-71
2021/04/22 06:32:26;;;;;;;34.80;20.05;;;;;;;10.35;71.05;97868.94;1772692;80;21095;-70
2021/04/22 06:34:52;;;;;;;38.28;20.32;;;;;;;10.35;66.04;97869.48;1761108;81;21160;-70
2021/04/22 06:37:18;;;;;;;28.30;18.17;;;;;;;10.35;66.04;97869.48;1772679;81;21091;-70
2021/04/22 06:39:44;;;;;;;28.80;18.77;;;;;;;10.44;66.80;97878.62;1761182;81;21152;-71
2021/04/22 06:42:11;;;;;;;24.00;16.30;;;;;;;10.46;67.91;97879.14;1772693;81;21210;-70
2021/04/22 06:44:37;;;;;;;31.77;20.02;;;;;;;10.48;65.97;97888.34;1761154;81;21518;-71
2021/04/22 06:47:04;;;;;;;26.00;17.65;;;;;;;10.48;65.97;97888.34;1772785;81;21409;-70
2021/04/22 06:49:30;;;;;;;46.83;28.52;;;;;;;10.49;65.75;97892.12;1761080;81;21070;-70
2021/04/22 06:51:56;;;;;;;31.40;19.45;;;;;;;10.49;65.75;97892.12;1772738;81;21095;-70
2021/04/22 06:54:22;;;;;;;31.65;17.73;;;;;;;10.57;65.86;97898.29;1761120;81;21204;-70
2021/04/22 06:56:49;;;;;;;37.90;24.77;;;;;;;10.57;65.86;97898.29;1772720;81;21508;-71
2021/04/22 06:59:16;;;;;;;23.98;16.60;;;;;;;10.63;65.67;97896.36;1761100;81;21521;-70
2021/04/22 07:01:42;;;;;;;32.25;19.17;;;;;;;10.76;63.84;97892.98;1773485;80;21417;-71
2021/04/22 07:04:08;;;;;;;32.65;16.67;;;;;;;11.16;64.45;97904.58;1784182;80;21447;-72
2021/04/22 07:06:34;;;;;;;32.08;19.57;;;;;;;11.19;62.43;97908.06;1787640;80;21500;-71
2021/04/22 07:09:00;;;;;;;29.15;18.95;;;;;;;11.03;62.23;97915.55;1783961;80;21047;-69
2021/04/22 07:11:27;;;;;;;30.92;19.87;;;;;;;11.01;62.60;97914.45;1787697;80;21106;-69
2021/04/22 07:13:54;;;;;;;28.32;18.32;;;;;;;11.03;62.67;97914.75;1784067;80;21101;-69
2021/04/22 07:16:20;;;;;;;29.02;15.85;;;;;;;10.95;62.05;97913.45;1787712;80;21031;-69
2021/04/22 07:18:46;;;;;;;24.77;17.05;;;;;;;10.85;61.09;97912.16;1784092;80;21202;-70
2021/04/22 07:21:13;;;;;;;25.25;16.77;;;;;;;10.79;61.90;97917.38;1756427;80;21139;-70
2021/04/22 07:23:40;;;;;;;24.98;16.87;;;;;;;10.86;62.53;97917.88;1784011;80;21031;-71
2021/04/22 07:26:08;;;;;;;21.35;14.38;;;;;;;10.91;62.25;97924.04;1787366;80;21106;-71
2021/04/22 07:28:35;;;;;;;22.95;16.95;;;;;;;10.86;61.39;97927.36;1784050;80;21506;-71
2021/04/22 07:31:01;;;;;;;28.57;17.17;;;;;;;10.67;61.13;97921.79;1787606;80;21250;-71
2021/04/22 07:33:28;;;;;;;26.93;17.92;;;;;;;10.89;62.05;97921.36;1783939;80;21467;-71
2021/04/22 07:35:54;;;;;;;25.48;17.37;;;;;;;11.10;62.30;97921.43;1787586;80;21027;-71
2021/04/22 07:38:20;;;;;;;28.35;17.67;;;;;;;11.20;61.12;97929.50;1784088;80;21039;-71
2021/04/22 07:40:46;;;;;;;24.43;17.57;;;;;;;11.33;62.01;97926.65;1787663;80;21194;-71
2021/04/22 07:43:13;;;;;;;25.85;16.77;;;;;;;11.34;60.25;97927.45;1784063;80;21274;-71
2021/04/22 07:45:42;;;;;;;30.80;18.10;;;;;;;11.37;60.37;97926.34;1787532;80;21182;-71
2021/04/22 07:48:09;;;;;;;25.92;17.90;;;;;;;11.48;60.30;97921.07;1784064;80;21027;-71
2021/04/22 07:50:35;;;;;;;27.17;18.73;;;;;;;11.48;60.66;97925.69;1787606;80;21130;-70
2021/04/22 07:53:05;;;;;;;30.72;20.92;;;;;;;11.35;61.35;97931.23;1783977;80;21071;-71
2021/04/22 07:55:33;;;;;;;35.68;19.02;;;;;;;10.98;61.96;97941.34;1787464;80;21273;-71
2021/04/22 07:57:59;;;;;;;31.80;22.40;;;;;;;10.50;63.09;97947.91;1783980;80;21073;-71
2021/04/22 08:00:25;;;;;;;36.75;24.07;;;;;;;10.03;64.34;97958.70;1787637;80;21103;-70
2021/04/22 08:02:51;;;;;;;35.63;23.67;;;;;;;9.87;65.42;97964.72;1783959;80;21039;-71
2021/04/22 08:05:21;;;;;;;36.73;25.15;;;;;;;9.86;65.02;97966.35;1787621;80;21168;-71
2021/04/22 08:07:47;;;;;;;36.23;25.68;;;;;;;9.75;65.86;97983.72;1784055;80;22116;-71
2021/04/22 08:10:17;;;;;;;39.25;25.43;;;;;;;9.64;66.02;97980.20;1756859;80;21582;-71
2021/04/22 08:12:43;;;;;;;31.42;22.30;;;;;;;9.66;66.70;97979.41;1783907;80;21146;-71
2021/04/22 08:15:11;;;;;;;33.20;21.50;;;;;;;9.66;66.70;97979.41;1787722;80;21155;-71
2021/04/22 08:17:42;;;;;;;31.85;20.65;;;;;;;9.83;66.66;97978.55;1784235;80;21007;-71
2021/04/22 08:20:13;;;;;;;34.25;22.35;;;;;;;10.06;66.15;97980.34;1758118;80;22155;-70
2021/04/22 08:22:39;;;;;;;30.43;22.27;;;;;;;10.10;65.61;97965.98;1782438;80;21425;-71
2021/04/22 08:25:08;;;;;;;32.28;19.62;;;;;;;10.10;65.61;97965.98;1787843;80;21553;-72
2021/04/22 08:27:34;;;;;;;;;;;;;;;10.25;65.67;97983.27;1786748;80;21035;-71
2021/04/22 08:30:01;;;;;;;32.70;22.37;;;;;;;10.29;64.96;97982.45;1784188;80;20245;-72
2021/04/22 08:32:27;;;;;;;40.33;26.00;;;;;;;10.09;65.11;97985.22;1787683;80;21252;-71
2021/04/22 08:34:54;;;;;;;39.83;26.57;;;;;;;10.20;65.16;97994.11;1784122;80;21145;-71
2021/04/22 08:37:20;;;;;;;37.58;26.80;;;;;;;9.97;65.38;97988.77;1787782;80;21056;-71
2021/04/22 08:39:46;;;;;;;44.03;29.67;;;;;;;9.94;65.52;97990.14;1784251;80;21146;-71
2021/04/22 08:42:12;;;;;;;44.58;30.72;;;;;;;10.01;66.01;97988.50;1787732;80;21114;-71
2021/04/22 08:44:38;;;;;;;53.00;32.00;;;;;;;10.04;65.67;97996.06;1784162;80;21188;-71
2021/04/22 08:47:05;;;;;;;39.63;27.67;;;;;;;10.18;65.52;98001.97;1787706;80;21559;-71
2021/04/22 08:49:31;;;;;;;44.63;28.65;;;;;;;10.09;65.39;98000.12;1753601;80;21055;-71
2021/04/22 08:51:57;;;;;;;31.27;21.37;;;;;;;10.03;65.38;98006.08;1787728;80;21063;-70
2021/04/22 08:54:23;;;;;;;31.00;22.80;;;;;;;9.61;65.57;98018.09;1784164;80;21122;-70
2021/04/22 08:56:49;;;;;;;124.30;28.35;;;;;;;9.26;67.46;98034.36;1787722;80;21140;-71
2021/04/22 08:59:17;;;;;;;36.90;20.52;;;;;;;9.17;68.18;98022.46;1784066;80;21126;-71
2021/04/22 09:01:43;;;;;;;24.60;13.22;;;;;;;8.96;69.24;98044.59;1787661;80;21131;-71
2021/04/22 09:04:11;;;;;;;21.70;14.87;;;;;;;8.50;69.44;98049.91;1760660;80;21436;-71
2021/04/22 09:06:38;;;;;;;22.10;13.03;;;;;;;7.87;72.09;98047.17;1765767;81;21034;-71
2021/04/22 09:09:06;;;;;;;28.90;15.00;;;;;;;7.56;73.55;98053.44;1765752;81;21300;-70
2021/04/22 09:11:43;;;;;;;20.27;12.43;;;;;;;7.33;74.08;98055.95;1765706;81;21432;-70
2021/04/22 09:14:18;;;;;;;17.23;11.60;;;;;;;7.25;74.49;98063.98;1765766;81;21034;-71
2021/04/22 09:16:44;;;;;;;15.80;10.13;;;;;;;7.23;74.20;98068.01;1765890;81;21479;-71
2021/04/22 09:19:13;;;;;;;14.75;10.80;;;;;;;7.06;74.12;98078.38;1765750;81;21086;-72
2021/04/22 09:21:44;;;;;;;13.03;8.83;;;;;;;7.01;74.58;98087.77;1765844;81;22157;-71
2021/04/22 09:24:15;;;;;;;12.53;8.90;;;;;;;6.82;75.48;98095.09;1765724;81;21507;-71
2021/04/22 09:27:03;;;;;;;11.68;7.80;;;;;;;6.50;76.55;98099.88;1765763;81;21062;-71
2021/04/22 09:29:47;;;;;;;10.35;7.03;;;;;;;6.55;76.07;98099.92;1786937;80;21559;-70
2021/04/22 09:32:22;;;;;;;11.65;7.78;;;;;;;6.17;76.69;98099.45;1786728;80;21134;-71
2021/04/22 09:35:01;;;;;;;13.20;8.18;;;;;;;6.12;77.12;98106.11;1765759;81;21245;-71
2021/04/22 09:37:50;;;;;;;13.28;10.15;;;;;;;6.15;76.64;98106.94;1764470;81;21514;-71
2021/04/22 09:40:33;;;;;;;15.35;10.45;;;;;;;5.91;77.45;98111.22;1765749;81;21082;-72
2021/04/22 09:43:02;;;;;;;16.37;10.90;;;;;;;5.71;78.51;98114.90;1738151;81;21416;-70
2021/04/22 09:45:31;;;;;;;14.18;10.10;;;;;;;5.53;78.88;98120.00;1765857;81;21113;-71
2021/04/22 09:47:57;;;;;;;16.23;11.93;;;;;;;5.51;79.49;98113.25;1765923;81;21182;-71
2021/04/22 09:50:27;;;;;;;23.60;14.98;;;;;;;5.54;79.55;98116.78;1765799;81;21126;-71
2021/04/22 09:52:56;;;;;;;15.38;10.90;;;;;;;5.56;79.16;98114.69;1765791;81;21609;-71
2021/04/22 09:55:29;;;;;;;12.23;10.10;;;;;;;5.53;78.74;98124.03;1765856;81;21165;-71
2021/04/22 09:57:56;;;;;;;12.43;8.33;;;;;;;5.59;78.65;98119.56;1765725;81;21312;-71
2021/04/22 10:00:31;;;;;;;12.58;10.13;;;;;;;5.58;78.88;98119.28;1765697;81;21188;-70
2021/04/22 10:03:09;;;;;;;13.05;10.03;;;;;;;5.69;78.37;98117.02;1768573;79;21183;-70
2021/04/22 10:05:34;;;;;;;13.88;11.65;;;;;;;5.76;77.93;98131.13;1760563;81;21118;-72
2021/04/22 10:08:15;;;;;;;171.68;82.42;;;;;;;5.63;78.74;98136.81;1772885;80;26563;-71
2021/04/22 10:10:57;;;;;;;147.55;68.15;;;;;;;5.55;78.87;98142.06;1761164;81;21042;-71
2021/04/22 10:13:23;;;;;;;123.90;74.27;;;;;;;5.54;78.95;98137.75;1772877;81;21197;-71
2021/04/22 10:15:58;;;;;;;86.00;62.88;;;;;;;5.40;80.92;98152.59;1761138;81;21018;-71
2021/04/22 10:18:37;;;;;;;54.05;41.65;;;;;;;5.27;81.87;98151.54;1772775;81;21115;-71
2021/04/22 10:21:04;;;;;;;42.10;26.93;;;;;;;5.15;83.11;98152.14;1761184;81;21513;-72
2021/04/22 10:23:30;;;;;;;15.15;11.68;;;;;;;5.07;83.74;98158.19;1772786;81;21073;-72
2021/04/22 10:25:56;;;;;;;30.27;22.40;;;;;;;5.00;82.59;98170.13;1761108;81;21431;-72
2021/04/22 10:28:22;;;;;;;15.32;11.50;;;;;;;4.89;82.48;98173.69;1772675;81;21142;-72
2021/04/22 10:30:49;;;;;;;113.42;87.92;;;;;;;4.67;83.08;98178.34;1761082;81;21173;-72
2021/04/22 10:33:16;;;;;;;35.38;32.05;;;;;;;4.62;83.51;98189.52;1772817;80;21052;-69
2021/04/22 10:35:44;;;;;;;14.43;12.58;;;;;;;4.47;83.91;98190.83;1761217;81;21125;-69
2021/04/22 10:38:10;;;;;;;12.20;10.90;;;;;;;4.36;84.22;98180.94;1772789;81;21205;-69
2021/04/22 10:40:41;;;;;;;15.80;11.48;;;;;;;4.18;84.07;98180.52;1761105;81;21153;-69
2021/04/22 10:43:08;;;;;;;14.33;12.33;;;;;;;4.16;83.62;98189.86;1772636;80;21101;-71
2021/04/22 10:45:37;;;;;;;12.98;8.93;;;;;;;4.06;84.25;98195.81;1761130;81;21093;-72
2021/04/22 10:48:05;;;;;;;10.20;7.42;;;;;;;4.10;84.22;98197.00;1761212;81;21085;-71
2021/04/22 10:50:38;;;;;;;25.30;22.82;;;;;;;4.21;83.28;98192.67;1761072;81;21144;-71
2021/04/22 10:53:12;;;;;;;9.35;7.45;;;;;;;4.34;83.12;98189.72;1772589;81;21139;-70
2021/04/22 10:55:43;;;;;;;22.40;16.32;;;;;;;4.36;83.03;98194.85;1761085;80;21094;-71
2021/04/22 10:58:23;;;;;;;14.13;10.05;;;;;;;4.32;83.45;98196.39;1772769;80;21473;-71
2021/04/22 11:00:56;;;;;;;12.58;9.08;;;;;;;4.41;83.19;98199.00;1760170;81;21188;-72
2021/04/22 11:03:34;;;;;;;11.20;8.43;;;;;;;4.44;83.30;98201.20;1767257;80;21196;-72
2021/04/22 11:06:16;;;;;;;23.90;17.10;;;;;;;4.55;82.82;98200.91;1787791;80;21062;-70
2021/04/22 11:08:54;;;;;;;26.77;11.48;;;;;;;4.77;82.79;98205.39;1784170;80;21563;-72
2021/04/22 11:11:27;;;;;;;38.23;15.43;;;;;;;4.99;82.01;98197.52;1787652;80;21027;-72
2021/04/22 11:14:14;;;;;;;22.25;10.68;;;;;;;5.17;80.92;98193.81;1784108;80;21106;-71
2021/04/22 11:16:49;;;;;;;20.80;11.22;;;;;;;5.42;80.45;98194.81;1787618;80;21940;-71
2021/04/22 11:19:17;;;;;;;36.25;18.20;;;;;;;5.62;79.86;98196.49;1754950;80;21178;-72
2021/04/22 11:21:54;;;;;;;45.20;21.35;;;;;;;5.71;79.05;98194.22;1787526;80;21543;-71
2021/04/22 11:24:34;;;;;;;63.05;22.75;;;;;;;5.75;78.90;98194.56;1784030;80;21575;-71
2021/04/22 11:27:05;;;;;;;;;;;;;;;5.78;78.89;98194.06;1789628;80;21023;-71